sensor_id;sensor_type;location;lat;lon;timestamp;P1;durP1;ratioP1;P2;durP2;ratioP2
7965;SDS011;4028;43.272;26.932;2023-06-26T00:00:13;9.38;;;8.48;;
7965;SDS011;4028;43.272;26.932;2023-06-26T00:02:39;9.32;;;7.80;;
7965;SDS011;4028;43.272;26.932;2023-06-26T00:05:05;11.48;;;9.00;;
7965;SDS011;4028;43.272;26.932;2023-06-26T00:07:31;9.93;;;8.95;;
7965;SDS011;4028;43.272;26.932;2023-06-26T00:09:59;10.13;;;9.13;;
7965;SDS011;4028;43.272;26.932;2023-06-26T00:12:25;9.75;;;8.20;;
7965;SDS011;4028;43.272;26.932;2023-06-26T00:14:51;10.10;;;9.23;;
7965;SDS011;4028;43.272;26.932;2023-06-26T00:17:17;10.18;;;9.13;;
7965;SDS011;4028;43.272;26.932;2023-06-26T00:19:43;9.38;;;8.48;;
7965;SDS011;4028;43.272;26.932;2023-06-26T00:22:08;9.80;;;8.70;;
7965;SDS011;4028;43.272;26.932;2023-06-26T00:24:34;9.18;;;8.27;;
7965;SDS011;4028;43.272;26.932;2023-06-26T00:26:59;11.02;;;8.73;;
7965;SDS011;4028;43.272;26.932;2023-06-26T00:29:25;9.45;;;8.00;;
7965;SDS011;4028;43.272;26.932;2023-06-26T00:31:50;10.13;;;8.57;;
7965;SDS011;4028;43.272;26.932;2023-06-26T00:34:16;8.95;;;8.02;;
7965;SDS011;4028;43.272;26.932;2023-06-26T00:36:41;10.98;;;7.80;;
7965;SDS011;4028;43.272;26.932;2023-06-26T00:39:09;8.50;;;7.70;;
7965;SDS011;4028;43.272;26.932;2023-06-26T00:41:35;8.25;;;7.55;;
7965;SDS011;4028;43.272;26.932;2023-06-26T00:44:01;8.38;;;7.60;;
7965;SDS011;4028;43.272;26.932;2023-06-26T00:46:27;8.68;;;7.80;;
7965;SDS011;4028;43.272;26.932;2023-06-26T00:48:53;8.60;;;7.80;;
7965;SDS011;4028;43.272;26.932;2023-06-26T00:51:20;8.60;;;7.47;;
7965;SDS011;4028;43.272;26.932;2023-06-26T00:53:46;8.18;;;7.35;;
7965;SDS011;4028;43.272;26.932;2023-06-26T00:56:12;8.90;;;8.00;;
7965;SDS011;4028;43.272;26.932;2023-06-26T00:58:40;11.07;;;9.15;;
7965;SDS011;4028;43.272;26.932;2023-06-26T01:01:05;8.80;;;7.90;;
7965;SDS011;4028;43.272;26.932;2023-06-26T01:03:33;9.40;;;8.20;;
7965;SDS011;4028;43.272;26.932;2023-06-26T01:05:59;9.02;;;8.00;;
7965;SDS011;4028;43.272;26.932;2023-06-26T01:08:26;10.25;;;8.40;;
7965;SDS011;4028;43.272;26.932;2023-06-26T01:10:52;9.23;;;8.27;;
7965;SDS011;4028;43.272;26.932;2023-06-26T01:13:18;10.05;;;9.10;;
7965;SDS011;4028;43.272;26.932;2023-06-26T01:15:44;8.35;;;7.65;;
7965;SDS011;4028;43.272;26.932;2023-06-26T01:18:11;9.98;;;8.82;;
7965;SDS011;4028;43.272;26.932;2023-06-26T01:20:37;8.25;;;7.45;;
7965;SDS011;4028;43.272;26.932;2023-06-26T01:23:14;10.52;;;8.70;;
7965;SDS011;4028;43.272;26.932;2023-06-26T01:26:05;10.73;;;8.52;;
7965;SDS011;4028;43.272;26.932;2023-06-26T01:28:33;10.27;;;8.60;;
7965;SDS011;4028;43.272;26.932;2023-06-26T01:31:00;10.07;;;8.93;;
7965;SDS011;4028;43.272;26.932;2023-06-26T01:33:27;9.65;;;8.68;;
7965;SDS011;4028;43.272;26.932;2023-06-26T01:35:53;11.00;;;9.40;;
7965;SDS011;4028;43.272;26.932;2023-06-26T01:38:19;10.48;;;9.43;;
7965;SDS011;4028;43.272;26.932;2023-06-26T01:40:46;11.38;;;10.10;;
7965;SDS011;4028;43.272;26.932;2023-06-26T01:45:59;11.52;;;10.52;;
7965;SDS011;4028;43.272;26.932;2023-06-26T01:48:34;11.82;;;10.25;;
7965;SDS011;4028;43.272;26.932;2023-06-26T01:51:09;11.63;;;10.63;;
7965;SDS011;4028;43.272;26.932;2023-06-26T01:53:38;11.45;;;10.35;;
7965;SDS011;4028;43.272;26.932;2023-06-26T01:56:13;11.80;;;10.63;;
7965;SDS011;4028;43.272;26.932;2023-06-26T01:58:41;13.20;;;11.85;;
7965;SDS011;4028;43.272;26.932;2023-06-26T02:01:10;12.98;;;11.50;;
7965;SDS011;4028;43.272;26.932;2023-06-26T02:03:36;12.88;;;11.52;;
7965;SDS011;4028;43.272;26.932;2023-06-26T02:06:02;16.92;;;11.98;;
7965;SDS011;4028;43.272;26.932;2023-06-26T02:08:27;14.30;;;11.90;;
7965;SDS011;4028;43.272;26.932;2023-06-26T02:10:53;14.18;;;12.55;;
7965;SDS011;4028;43.272;26.932;2023-06-26T02:13:18;14.45;;;12.95;;
7965;SDS011;4028;43.272;26.932;2023-06-26T02:15:44;15.30;;;13.77;;
7965;SDS011;4028;43.272;26.932;2023-06-26T02:18:09;14.45;;;12.55;;
7965;SDS011;4028;43.272;26.932;2023-06-26T02:20:35;15.20;;;13.60;;
7965;SDS011;4028;43.272;26.932;2023-06-26T02:23:01;15.18;;;13.68;;
7965;SDS011;4028;43.272;26.932;2023-06-26T02:25:26;16.33;;;14.20;;
7965;SDS011;4028;43.272;26.932;2023-06-26T02:27:52;16.95;;;13.35;;
7965;SDS011;4028;43.272;26.932;2023-06-26T02:30:17;16.38;;;14.75;;
7965;SDS011;4028;43.272;26.932;2023-06-26T02:32:43;14.85;;;13.40;;
7965;SDS011;4028;43.272;26.932;2023-06-26T02:35:08;18.50;;;14.32;;
7965;SDS011;4028;43.272;26.932;2023-06-26T02:37:34;15.45;;;13.95;;
7965;SDS011;4028;43.272;26.932;2023-06-26T02:39:59;15.02;;;13.65;;
7965;SDS011;4028;43.272;26.932;2023-06-26T02:42:25;15.02;;;13.38;;
7965;SDS011;4028;43.272;26.932;2023-06-26T02:44:50;15.32;;;13.40;;
7965;SDS011;4028;43.272;26.932;2023-06-26T02:47:16;16.40;;;13.85;;
7965;SDS011;4028;43.272;26.932;2023-06-26T02:49:41;16.52;;;14.00;;
7965;SDS011;4028;43.272;26.932;2023-06-26T02:52:07;15.07;;;13.52;;
7965;SDS011;4028;43.272;26.932;2023-06-26T02:54:32;14.40;;;12.73;;
7965;SDS011;4028;43.272;26.932;2023-06-26T02:56:58;13.98;;;12.55;;
7965;SDS011;4028;43.272;26.932;2023-06-26T02:59:24;18.85;;;13.95;;
7965;SDS011;4028;43.272;26.932;2023-06-26T03:01:51;17.15;;;14.07;;
7965;SDS011;4028;43.272;26.932;2023-06-26T03:04:17;15.80;;;12.77;;
7965;SDS011;4028;43.272;26.932;2023-06-26T03:06:43;15.50;;;13.73;;
7965;SDS011;4028;43.272;26.932;2023-06-26T03:09:08;17.00;;;12.25;;
7965;SDS011;4028;43.272;26.932;2023-06-26T03:11:34;17.20;;;13.40;;
7965;SDS011;4028;43.272;26.932;2023-06-26T03:13:59;16.73;;;12.48;;
7965;SDS011;4028;43.272;26.932;2023-06-26T03:16:25;15.82;;;12.48;;
7965;SDS011;4028;43.272;26.932;2023-06-26T03:18:50;15.85;;;14.20;;
7965;SDS011;4028;43.272;26.932;2023-06-26T03:21:16;16.48;;;14.80;;
7965;SDS011;4028;43.272;26.932;2023-06-26T03:23:42;17.90;;;15.77;;
7965;SDS011;4028;43.272;26.932;2023-06-26T03:26:07;18.08;;;16.25;;
7965;SDS011;4028;43.272;26.932;2023-06-26T03:28:33;18.05;;;16.20;;
7965;SDS011;4028;43.272;26.932;2023-06-26T03:30:58;17.67;;;15.93;;
7965;SDS011;4028;43.272;26.932;2023-06-26T03:33:24;15.70;;;13.95;;
7965;SDS011;4028;43.272;26.932;2023-06-26T03:35:49;14.07;;;12.68;;
7965;SDS011;4028;43.272;26.932;2023-06-26T03:38:15;12.45;;;11.25;;
7965;SDS011;4028;43.272;26.932;2023-06-26T03:40:40;12.52;;;10.45;;
7965;SDS011;4028;43.272;26.932;2023-06-26T03:43:06;10.30;;;9.30;;
7965;SDS011;4028;43.272;26.932;2023-06-26T03:45:31;9.20;;;8.20;;
7965;SDS011;4028;43.272;26.932;2023-06-26T03:47:57;14.15;;;8.80;;
7965;SDS011;4028;43.272;26.932;2023-06-26T03:50:22;9.10;;;8.30;;
7965;SDS011;4028;43.272;26.932;2023-06-26T03:52:48;10.10;;;8.43;;
7965;SDS011;4028;43.272;26.932;2023-06-26T03:55:15;11.02;;;8.93;;
7965;SDS011;4028;43.272;26.932;2023-06-26T03:57:41;12.77;;;10.65;;
7965;SDS011;4028;43.272;26.932;2023-06-26T04:00:06;15.85;;;11.63;;
7965;SDS011;4028;43.272;26.932;2023-06-26T04:02:37;14.05;;;12.75;;
7965;SDS011;4028;43.272;26.932;2023-06-26T04:05:03;14.43;;;12.93;;
7965;SDS011;4028;43.272;26.932;2023-06-26T04:07:29;16.30;;;14.48;;
7965;SDS011;4028;43.272;26.932;2023-06-26T04:09:56;16.10;;;14.48;;
7965;SDS011;4028;43.272;26.932;2023-06-26T04:12:24;15.88;;;14.25;;
7965;SDS011;4028;43.272;26.932;2023-06-26T04:14:49;18.30;;;14.95;;
7965;SDS011;4028;43.272;26.932;2023-06-26T04:17:15;17.08;;;14.13;;
7965;SDS011;4028;43.272;26.932;2023-06-26T04:19:41;16.00;;;14.50;;
7965;SDS011;4028;43.272;26.932;2023-06-26T04:22:06;23.63;;;16.80;;
7965;SDS011;4028;43.272;26.932;2023-06-26T04:24:32;18.05;;;14.10;;
7965;SDS011;4028;43.272;26.932;2023-06-26T04:26:57;18.48;;;13.70;;
7965;SDS011;4028;43.272;26.932;2023-06-26T04:29:23;18.05;;;13.15;;
7965;SDS011;4028;43.272;26.932;2023-06-26T04:31:51;14.35;;;12.65;;
7965;SDS011;4028;43.272;26.932;2023-06-26T04:34:16;15.52;;;12.57;;
7965;SDS011;4028;43.272;26.932;2023-06-26T04:36:42;13.95;;;11.63;;
7965;SDS011;4028;43.272;26.932;2023-06-26T04:39:11;12.55;;;10.93;;
7965;SDS011;4028;43.272;26.932;2023-06-26T04:41:37;11.95;;;10.60;;
7965;SDS011;4028;43.272;26.932;2023-06-26T04:44:02;13.02;;;11.07;;
7965;SDS011;4028;43.272;26.932;2023-06-26T04:46:28;13.02;;;10.85;;
7965;SDS011;4028;43.272;26.932;2023-06-26T04:48:53;11.75;;;10.38;;
7965;SDS011;4028;43.272;26.932;2023-06-26T04:51:19;13.15;;;10.02;;
7965;SDS011;4028;43.272;26.932;2023-06-26T04:53:46;11.82;;;9.82;;
7965;SDS011;4028;43.272;26.932;2023-06-26T04:56:11;10.63;;;9.18;;
7965;SDS011;4028;43.272;26.932;2023-06-26T04:58:36;13.23;;;10.00;;
7965;SDS011;4028;43.272;26.932;2023-06-26T05:01:02;11.07;;;9.10;;
7965;SDS011;4028;43.272;26.932;2023-06-26T05:03:27;12.70;;;9.38;;
7965;SDS011;4028;43.272;26.932;2023-06-26T05:05:53;13.80;;;9.38;;
7965;SDS011;4028;43.272;26.932;2023-06-26T05:08:20;13.65;;;8.95;;
7965;SDS011;4028;43.272;26.932;2023-06-26T05:10:47;10.18;;;9.07;;
7965;SDS011;4028;43.272;26.932;2023-06-26T05:13:13;11.18;;;8.45;;
7965;SDS011;4028;43.272;26.932;2023-06-26T05:15:42;10.63;;;7.88;;
7965;SDS011;4028;43.272;26.932;2023-06-26T05:18:08;10.00;;;8.02;;
7965;SDS011;4028;43.272;26.932;2023-06-26T05:20:34;11.13;;;7.55;;
7965;SDS011;4028;43.272;26.932;2023-06-26T05:23:04;9.07;;;7.78;;
7965;SDS011;4028;43.272;26.932;2023-06-26T05:25:30;7.80;;;7.03;;
7965;SDS011;4028;43.272;26.932;2023-06-26T05:27:57;10.05;;;7.47;;
7965;SDS011;4028;43.272;26.932;2023-06-26T05:30:23;11.02;;;8.00;;
7965;SDS011;4028;43.272;26.932;2023-06-26T05:32:53;8.23;;;7.47;;
7965;SDS011;4028;43.272;26.932;2023-06-26T05:35:20;10.60;;;7.13;;
7965;SDS011;4028;43.272;26.932;2023-06-26T05:37:50;9.70;;;7.40;;
7965;SDS011;4028;43.272;26.932;2023-06-26T05:40:16;10.50;;;7.50;;
7965;SDS011;4028;43.272;26.932;2023-06-26T05:42:43;9.90;;;7.65;;
7965;SDS011;4028;43.272;26.932;2023-06-26T05:45:09;16.05;;;7.55;;
7965;SDS011;4028;43.272;26.932;2023-06-26T05:47:35;10.23;;;7.68;;
7965;SDS011;4028;43.272;26.932;2023-06-26T05:50:01;9.98;;;6.55;;
7965;SDS011;4028;43.272;26.932;2023-06-26T05:52:27;7.80;;;7.07;;
7965;SDS011;4028;43.272;26.932;2023-06-26T05:54:53;10.88;;;7.07;;
7965;SDS011;4028;43.272;26.932;2023-06-26T05:57:19;7.53;;;6.30;;
7965;SDS011;4028;43.272;26.932;2023-06-26T05:59:45;9.52;;;7.05;;
7965;SDS011;4028;43.272;26.932;2023-06-26T06:02:11;7.78;;;7.03;;
7965;SDS011;4028;43.272;26.932;2023-06-26T06:04:37;7.60;;;6.43;;
7965;SDS011;4028;43.272;26.932;2023-06-26T06:07:03;9.05;;;6.55;;
7965;SDS011;4028;43.272;26.932;2023-06-26T06:09:29;6.78;;;6.18;;
7965;SDS011;4028;43.272;26.932;2023-06-26T06:11:54;7.22;;;6.38;;
7965;SDS011;4028;43.272;26.932;2023-06-26T06:14:20;11.25;;;6.78;;
7965;SDS011;4028;43.272;26.932;2023-06-26T06:16:45;10.25;;;6.05;;
7965;SDS011;4028;43.272;26.932;2023-06-26T06:19:11;11.00;;;6.55;;
7965;SDS011;4028;43.272;26.932;2023-06-26T06:21:38;7.43;;;6.65;;
7965;SDS011;4028;43.272;26.932;2023-06-26T06:24:04;10.38;;;6.93;;
7965;SDS011;4028;43.272;26.932;2023-06-26T06:26:31;7.85;;;7.05;;
7965;SDS011;4028;43.272;26.932;2023-06-26T06:28:57;7.15;;;6.28;;
7965;SDS011;4028;43.272;26.932;2023-06-26T06:31:22;9.80;;;6.90;;
7965;SDS011;4028;43.272;26.932;2023-06-26T06:33:48;8.65;;;6.18;;
7965;SDS011;4028;43.272;26.932;2023-06-26T06:36:13;11.18;;;7.18;;
7965;SDS011;4028;43.272;26.932;2023-06-26T06:38:42;10.20;;;6.72;;
7965;SDS011;4028;43.272;26.932;2023-06-26T06:41:08;8.10;;;6.68;;
7965;SDS011;4028;43.272;26.932;2023-06-26T06:43:34;9.95;;;6.70;;
7965;SDS011;4028;43.272;26.932;2023-06-26T06:45:59;11.75;;;7.50;;
7965;SDS011;4028;43.272;26.932;2023-06-26T06:48:25;8.60;;;6.43;;
7965;SDS011;4028;43.272;26.932;2023-06-26T06:50:50;10.20;;;6.25;;
7965;SDS011;4028;43.272;26.932;2023-06-26T06:53:17;8.80;;;6.95;;
7965;SDS011;4028;43.272;26.932;2023-06-26T06:55:45;11.80;;;6.75;;
7965;SDS011;4028;43.272;26.932;2023-06-26T06:58:11;8.60;;;7.70;;
7965;SDS011;4028;43.272;26.932;2023-06-26T07:00:36;7.00;;;6.32;;
7965;SDS011;4028;43.272;26.932;2023-06-26T07:03:02;8.70;;;6.60;;
7965;SDS011;4028;43.272;26.932;2023-06-26T07:05:27;7.22;;;6.47;;
7965;SDS011;4028;43.272;26.932;2023-06-26T07:07:53;8.20;;;6.57;;
7965;SDS011;4028;43.272;26.932;2023-06-26T07:10:18;8.00;;;6.63;;
7965;SDS011;4028;43.272;26.932;2023-06-26T07:12:44;7.65;;;6.78;;
7965;SDS011;4028;43.272;26.932;2023-06-26T07:15:10;9.32;;;6.97;;
7965;SDS011;4028;43.272;26.932;2023-06-26T07:17:35;7.13;;;6.43;;
7965;SDS011;4028;43.272;26.932;2023-06-26T07:20:03;6.93;;;6.25;;
7965;SDS011;4028;43.272;26.932;2023-06-26T07:22:33;12.18;;;6.55;;
7965;SDS011;4028;43.272;26.932;2023-06-26T07:24:59;7.97;;;5.70;;
7965;SDS011;4028;43.272;26.932;2023-06-26T07:27:25;8.65;;;7.15;;
7965;SDS011;4028;43.272;26.932;2023-06-26T07:29:50;7.15;;;6.45;;
7965;SDS011;4028;43.272;26.932;2023-06-26T07:32:16;10.35;;;6.60;;
7965;SDS011;4028;43.272;26.932;2023-06-26T07:34:41;8.82;;;6.28;;
7965;SDS011;4028;43.272;26.932;2023-06-26T07:37:07;9.57;;;6.90;;
7965;SDS011;4028;43.272;26.932;2023-06-26T07:39:32;6.65;;;6.05;;
7965;SDS011;4028;43.272;26.932;2023-06-26T07:41:58;7.40;;;6.30;;
7965;SDS011;4028;43.272;26.932;2023-06-26T07:44:24;11.57;;;6.95;;
7965;SDS011;4028;43.272;26.932;2023-06-26T07:46:50;7.07;;;6.38;;
7965;SDS011;4028;43.272;26.932;2023-06-26T07:49:15;10.30;;;6.57;;
7965;SDS011;4028;43.272;26.932;2023-06-26T07:51:41;8.70;;;5.93;;
7965;SDS011;4028;43.272;26.932;2023-06-26T07:54:06;7.10;;;5.90;;
7965;SDS011;4028;43.272;26.932;2023-06-26T07:56:35;10.25;;;6.18;;
7965;SDS011;4028;43.272;26.932;2023-06-26T07:59:16;7.07;;;6.20;;
7965;SDS011;4028;43.272;26.932;2023-06-26T08:01:42;9.88;;;6.55;;
7965;SDS011;4028;43.272;26.932;2023-06-26T08:04:07;7.78;;;6.35;;
7965;SDS011;4028;43.272;26.932;2023-06-26T08:06:35;11.45;;;6.63;;
7965;SDS011;4028;43.272;26.932;2023-06-26T08:09:01;9.18;;;5.80;;
7965;SDS011;4028;43.272;26.932;2023-06-26T08:11:29;9.63;;;5.85;;
7965;SDS011;4028;43.272;26.932;2023-06-26T08:13:55;7.03;;;5.60;;
7965;SDS011;4028;43.272;26.932;2023-06-26T08:16:20;9.50;;;5.90;;
7965;SDS011;4028;43.272;26.932;2023-06-26T08:18:46;6.40;;;5.65;;
7965;SDS011;4028;43.272;26.932;2023-06-26T08:21:11;7.55;;;5.88;;
7965;SDS011;4028;43.272;26.932;2023-06-26T08:23:37;8.77;;;6.35;;
7965;SDS011;4028;43.272;26.932;2023-06-26T08:26:02;6.88;;;6.22;;
7965;SDS011;4028;43.272;26.932;2023-06-26T08:28:28;11.10;;;5.85;;
7965;SDS011;4028;43.272;26.932;2023-06-26T08:30:54;9.13;;;5.97;;
7965;SDS011;4028;43.272;26.932;2023-06-26T08:33:19;10.05;;;6.20;;
7965;SDS011;4028;43.272;26.932;2023-06-26T08:35:45;9.63;;;6.00;;
7965;SDS011;4028;43.272;26.932;2023-06-26T08:38:10;9.18;;;5.75;;
7965;SDS011;4028;43.272;26.932;2023-06-26T08:40:36;6.18;;;5.57;;
7965;SDS011;4028;43.272;26.932;2023-06-26T08:43:02;7.03;;;5.05;;
7965;SDS011;4028;43.272;26.932;2023-06-26T08:45:28;9.30;;;5.78;;
7965;SDS011;4028;43.272;26.932;2023-06-26T08:47:53;8.50;;;5.68;;
7965;SDS011;4028;43.272;26.932;2023-06-26T08:50:20;6.18;;;5.57;;
7965;SDS011;4028;43.272;26.932;2023-06-26T08:52:53;5.93;;;5.35;;
7965;SDS011;4028;43.272;26.932;2023-06-26T08:55:24;7.43;;;4.82;;
7965;SDS011;4028;43.272;26.932;2023-06-26T08:57:53;7.45;;;5.80;;
7965;SDS011;4028;43.272;26.932;2023-06-26T09:00:19;8.13;;;5.90;;
7965;SDS011;4028;43.272;26.932;2023-06-26T09:02:45;5.57;;;5.07;;
7965;SDS011;4028;43.272;26.932;2023-06-26T09:05:11;6.65;;;5.90;;
7965;SDS011;4028;43.272;26.932;2023-06-26T09:07:37;6.57;;;5.70;;
7965;SDS011;4028;43.272;26.932;2023-06-26T09:10:03;7.03;;;5.63;;
7965;SDS011;4028;43.272;26.932;2023-06-26T09:12:28;8.13;;;5.32;;
7965;SDS011;4028;43.272;26.932;2023-06-26T09:14:55;9.10;;;5.15;;
7965;SDS011;4028;43.272;26.932;2023-06-26T09:17:25;5.28;;;4.78;;
7965;SDS011;4028;43.272;26.932;2023-06-26T09:19:54;5.68;;;5.00;;
7965;SDS011;4028;43.272;26.932;2023-06-26T09:22:19;8.13;;;5.60;;
7965;SDS011;4028;43.272;26.932;2023-06-26T09:24:45;5.38;;;4.60;;
7965;SDS011;4028;43.272;26.932;2023-06-26T09:27:11;5.32;;;4.82;;
7965;SDS011;4028;43.272;26.932;2023-06-26T09:29:36;4.80;;;4.40;;
7965;SDS011;4028;43.272;26.932;2023-06-26T09:32:02;5.70;;;5.20;;
7965;SDS011;4028;43.272;26.932;2023-06-26T09:34:32;5.50;;;4.53;;
7965;SDS011;4028;43.272;26.932;2023-06-26T09:36:58;5.90;;;4.90;;
7965;SDS011;4028;43.272;26.932;2023-06-26T09:39:29;5.05;;;4.50;;
7965;SDS011;4028;43.272;26.932;2023-06-26T09:41:55;5.28;;;4.88;;
7965;SDS011;4028;43.272;26.932;2023-06-26T09:44:22;6.80;;;4.90;;
7965;SDS011;4028;43.272;26.932;2023-06-26T09:46:48;5.90;;;4.70;;
7965;SDS011;4028;43.272;26.932;2023-06-26T09:49:14;9.07;;;5.05;;
7965;SDS011;4028;43.272;26.932;2023-06-26T09:51:40;5.10;;;4.70;;
7965;SDS011;4028;43.272;26.932;2023-06-26T09:54:07;6.00;;;4.30;;
7965;SDS011;4028;43.272;26.932;2023-06-26T09:56:34;4.95;;;4.18;;
7965;SDS011;4028;43.272;26.932;2023-06-26T09:59:00;5.68;;;5.05;;
7965;SDS011;4028;43.272;26.932;2023-06-26T10:01:28;6.25;;;4.38;;
7965;SDS011;4028;43.272;26.932;2023-06-26T10:03:54;7.15;;;4.60;;
7965;SDS011;4028;43.272;26.932;2023-06-26T10:09:29;4.53;;;4.22;;
7965;SDS011;4028;43.272;26.932;2023-06-26T10:11:57;8.38;;;4.72;;
7965;SDS011;4028;43.272;26.932;2023-06-26T10:14:35;5.53;;;4.75;;
7965;SDS011;4028;43.272;26.932;2023-06-26T10:17:15;5.15;;;4.38;;
7965;SDS011;4028;43.272;26.932;2023-06-26T10:19:43;4.93;;;4.43;;
7965;SDS011;4028;43.272;26.932;2023-06-26T10:22:11;5.65;;;4.85;;
7965;SDS011;4028;43.272;26.932;2023-06-26T10:24:39;9.63;;;4.57;;
7965;SDS011;4028;43.272;26.932;2023-06-26T10:27:11;5.53;;;4.70;;
7965;SDS011;4028;43.272;26.932;2023-06-26T10:29:42;6.80;;;5.18;;
7965;SDS011;4028;43.272;26.932;2023-06-26T10:32:11;6.35;;;4.88;;
7965;SDS011;4028;43.272;26.932;2023-06-26T10:34:38;5.47;;;4.57;;
7965;SDS011;4028;43.272;26.932;2023-06-26T10:37:04;4.72;;;4.32;;
7965;SDS011;4028;43.272;26.932;2023-06-26T10:39:45;5.75;;;4.47;;
7965;SDS011;4028;43.272;26.932;2023-06-26T10:42:18;5.15;;;4.65;;
7965;SDS011;4028;43.272;26.932;2023-06-26T10:44:45;5.25;;;4.65;;
7965;SDS011;4028;43.272;26.932;2023-06-26T10:47:28;4.97;;;4.38;;
7965;SDS011;4028;43.272;26.932;2023-06-26T10:49:56;5.40;;;4.72;;
7965;SDS011;4028;43.272;26.932;2023-06-26T10:52:21;5.18;;;4.65;;
7965;SDS011;4028;43.272;26.932;2023-06-26T10:54:47;6.68;;;5.22;;
7965;SDS011;4028;43.272;26.932;2023-06-26T10:57:12;5.20;;;4.70;;
7965;SDS011;4028;43.272;26.932;2023-06-26T10:59:48;5.72;;;5.00;;
7965;SDS011;4028;43.272;26.932;2023-06-26T11:02:14;7.13;;;4.82;;
7965;SDS011;4028;43.272;26.932;2023-06-26T11:07:23;4.95;;;4.55;;
7965;SDS011;4028;43.272;26.932;2023-06-26T11:10:00;5.40;;;4.90;;
7965;SDS011;4028;43.272;26.932;2023-06-26T11:12:45;6.07;;;4.80;;
7965;SDS011;4028;43.272;26.932;2023-06-26T11:15:16;5.28;;;4.70;;
7965;SDS011;4028;43.272;26.932;2023-06-26T11:17:44;6.75;;;4.72;;
7965;SDS011;4028;43.272;26.932;2023-06-26T11:20:11;6.45;;;4.38;;
7965;SDS011;4028;43.272;26.932;2023-06-26T11:22:38;5.45;;;4.38;;
7965;SDS011;4028;43.272;26.932;2023-06-26T11:25:06;5.28;;;4.88;;
7965;SDS011;4028;43.272;26.932;2023-06-26T11:27:39;5.10;;;4.65;;
7965;SDS011;4028;43.272;26.932;2023-06-26T11:30:05;4.70;;;4.30;;
7965;SDS011;4028;43.272;26.932;2023-06-26T11:32:32;5.85;;;4.28;;
7965;SDS011;4028;43.272;26.932;2023-06-26T11:35:00;5.55;;;4.20;;
7965;SDS011;4028;43.272;26.932;2023-06-26T11:37:25;5.25;;;4.47;;
7965;SDS011;4028;43.272;26.932;2023-06-26T11:39:51;6.70;;;4.88;;
7965;SDS011;4028;43.272;26.932;2023-06-26T11:42:20;6.97;;;4.65;;
7965;SDS011;4028;43.272;26.932;2023-06-26T11:44:46;5.18;;;4.60;;
7965;SDS011;4028;43.272;26.932;2023-06-26T11:47:12;5.38;;;4.88;;
7965;SDS011;4028;43.272;26.932;2023-06-26T11:49:41;6.88;;;5.07;;
7965;SDS011;4028;43.272;26.932;2023-06-26T11:52:08;5.53;;;5.00;;
7965;SDS011;4028;43.272;26.932;2023-06-26T11:54:33;4.72;;;4.25;;
7965;SDS011;4028;43.272;26.932;2023-06-26T11:56:59;6.88;;;4.47;;
7965;SDS011;4028;43.272;26.932;2023-06-26T11:59:32;4.25;;;3.70;;
7965;SDS011;4028;43.272;26.932;2023-06-26T12:01:59;4.00;;;3.70;;
7965;SDS011;4028;43.272;26.932;2023-06-26T12:04:25;4.95;;;3.67;;
7965;SDS011;4028;43.272;26.932;2023-06-26T12:06:52;4.82;;;3.65;;
7965;SDS011;4028;43.272;26.932;2023-06-26T12:09:29;4.93;;;4.18;;
7965;SDS011;4028;43.272;26.932;2023-06-26T12:11:55;4.18;;;3.78;;
7965;SDS011;4028;43.272;26.932;2023-06-26T12:14:22;4.60;;;3.50;;
7965;SDS011;4028;43.272;26.932;2023-06-26T12:16:48;3.85;;;3.55;;
7965;SDS011;4028;43.272;26.932;2023-06-26T12:19:14;4.47;;;3.80;;
7965;SDS011;4028;43.272;26.932;2023-06-26T12:24:06;4.10;;;3.50;;
7965;SDS011;4028;43.272;26.932;2023-06-26T12:26:37;5.45;;;3.58;;
7965;SDS011;4028;43.272;26.932;2023-06-26T12:31:32;3.95;;;3.65;;
7965;SDS011;4028;43.272;26.932;2023-06-26T12:33:58;4.78;;;3.80;;
7965;SDS011;4028;43.272;26.932;2023-06-26T12:36:24;4.43;;;4.03;;
7965;SDS011;4028;43.272;26.932;2023-06-26T12:38:49;5.05;;;3.90;;
7965;SDS011;4028;43.272;26.932;2023-06-26T12:41:17;4.93;;;3.53;;
7965;SDS011;4028;43.272;26.932;2023-06-26T12:43:45;3.92;;;3.33;;
7965;SDS011;4028;43.272;26.932;2023-06-26T12:46:11;5.70;;;3.70;;
7965;SDS011;4028;43.272;26.932;2023-06-26T12:51:11;4.20;;;3.72;;
7965;SDS011;4028;43.272;26.932;2023-06-26T12:53:40;8.88;;;3.80;;
7965;SDS011;4028;43.272;26.932;2023-06-26T12:56:07;4.35;;;3.97;;
7965;SDS011;4028;43.272;26.932;2023-06-26T12:58:36;4.65;;;3.65;;
7965;SDS011;4028;43.272;26.932;2023-06-26T13:01:03;5.45;;;3.83;;
7965;SDS011;4028;43.272;26.932;2023-06-26T13:03:30;6.25;;;3.45;;
7965;SDS011;4028;43.272;26.932;2023-06-26T13:05:56;4.10;;;3.78;;
7965;SDS011;4028;43.272;26.932;2023-06-26T13:08:22;4.15;;;3.75;;
7965;SDS011;4028;43.272;26.932;2023-06-26T13:10:47;3.90;;;3.60;;
7965;SDS011;4028;43.272;26.932;2023-06-26T13:13:13;6.50;;;4.55;;
7965;SDS011;4028;43.272;26.932;2023-06-26T13:15:38;4.35;;;3.97;;
7965;SDS011;4028;43.272;26.932;2023-06-26T13:18:04;4.38;;;3.60;;
7965;SDS011;4028;43.272;26.932;2023-06-26T13:20:29;3.97;;;3.65;;
7965;SDS011;4028;43.272;26.932;2023-06-26T13:22:55;5.13;;;4.13;;
7965;SDS011;4028;43.272;26.932;2023-06-26T13:25:21;4.93;;;4.07;;
7965;SDS011;4028;43.272;26.932;2023-06-26T13:27:47;7.40;;;3.88;;
7965;SDS011;4028;43.272;26.932;2023-06-26T13:30:14;4.05;;;3.72;;
7965;SDS011;4028;43.272;26.932;2023-06-26T13:32:41;4.50;;;3.63;;
7965;SDS011;4028;43.272;26.932;2023-06-26T13:35:07;3.85;;;3.55;;
7965;SDS011;4028;43.272;26.932;2023-06-26T13:37:33;4.50;;;3.50;;
7965;SDS011;4028;43.272;26.932;2023-06-26T13:39:59;4.80;;;3.80;;
7965;SDS011;4028;43.272;26.932;2023-06-26T13:42:27;4.72;;;3.67;;
7965;SDS011;4028;43.272;26.932;2023-06-26T13:44:53;5.22;;;3.40;;
7965;SDS011;4028;43.272;26.932;2023-06-26T13:47:18;6.60;;;4.07;;
7965;SDS011;4028;43.272;26.932;2023-06-26T13:49:44;5.82;;;3.85;;
7965;SDS011;4028;43.272;26.932;2023-06-26T13:52:09;4.03;;;3.72;;
7965;SDS011;4028;43.272;26.932;2023-06-26T13:54:35;4.20;;;3.80;;
7965;SDS011;4028;43.272;26.932;2023-06-26T13:57:02;5.10;;;3.83;;
7965;SDS011;4028;43.272;26.932;2023-06-26T13:59:30;6.22;;;3.97;;
7965;SDS011;4028;43.272;26.932;2023-06-26T14:01:56;4.32;;;3.92;;
7965;SDS011;4028;43.272;26.932;2023-06-26T14:04:21;9.70;;;4.20;;
7965;SDS011;4028;43.272;26.932;2023-06-26T14:06:47;6.63;;;4.57;;
7965;SDS011;4028;43.272;26.932;2023-06-26T14:09:13;4.20;;;3.50;;
7965;SDS011;4028;43.272;26.932;2023-06-26T14:11:38;5.15;;;4.13;;
7965;SDS011;4028;43.272;26.932;2023-06-26T14:14:04;4.80;;;3.70;;
7965;SDS011;4028;43.272;26.932;2023-06-26T14:16:29;4.63;;;4.20;;
7965;SDS011;4028;43.272;26.932;2023-06-26T14:18:55;5.03;;;3.85;;
7965;SDS011;4028;43.272;26.932;2023-06-26T14:21:21;4.25;;;3.85;;
7965;SDS011;4028;43.272;26.932;2023-06-26T14:23:46;6.20;;;4.22;;
7965;SDS011;4028;43.272;26.932;2023-06-26T14:26:12;4.78;;;4.10;;
7965;SDS011;4028;43.272;26.932;2023-06-26T14:28:37;4.22;;;3.78;;
7965;SDS011;4028;43.272;26.932;2023-06-26T14:31:04;6.15;;;3.97;;
7965;SDS011;4028;43.272;26.932;2023-06-26T14:33:30;5.00;;;3.90;;
7965;SDS011;4028;43.272;26.932;2023-06-26T14:35:55;4.05;;;3.75;;
7965;SDS011;4028;43.272;26.932;2023-06-26T14:38:21;7.35;;;4.38;;
7965;SDS011;4028;43.272;26.932;2023-06-26T14:40:46;5.43;;;4.20;;
7965;SDS011;4028;43.272;26.932;2023-06-26T14:43:12;4.80;;;4.15;;
7965;SDS011;4028;43.272;26.932;2023-06-26T14:45:37;4.50;;;4.03;;
7965;SDS011;4028;43.272;26.932;2023-06-26T14:48:03;4.20;;;3.90;;
7965;SDS011;4028;43.272;26.932;2023-06-26T14:50:28;5.90;;;4.05;;
7965;SDS011;4028;43.272;26.932;2023-06-26T14:52:54;6.95;;;3.92;;
7965;SDS011;4028;43.272;26.932;2023-06-26T14:55:19;8.05;;;3.90;;
7965;SDS011;4028;43.272;26.932;2023-06-26T14:57:45;4.10;;;3.70;;
7965;SDS011;4028;43.272;26.932;2023-06-26T15:00:11;4.22;;;3.85;;
7965;SDS011;4028;43.272;26.932;2023-06-26T15:02:36;6.65;;;3.72;;
7965;SDS011;4028;43.272;26.932;2023-06-26T15:05:02;4.53;;;4.13;;